Time;durP1;ratioP1;P1;durP2;ratioP2;P2;SDS_P1;SDS_P2;PMS_P1;PMS_P2;Temp;Humidity;BMP_temperature;BMP_pressure;BME280_temperature;BME280_humidity;BME280_pressure;Samples;Min_cycle;Max_cycle;Signal;HPM_P1;HPM_P2
2023/07/11 00:00:55;;;;;;;5.05;2.72;;;21.30;99.90;;;;;;2092242;28;20050;-70
2023/07/11 00:01:55;;;;;;;6.85;2.92;;;21.30;99.90;;;;;;2091833;28;20114;-70
2023/07/11 00:02:56;;;;;;;5.97;3.15;;;21.20;99.90;;;;;;2091579;28;20017;-70
2023/07/11 00:03:56;;;;;;;5.70;3.00;;;21.20;99.90;;;;;;2093570;28;20042;-70
2023/07/11 00:04:58;;;;;;;5.18;2.53;;;21.20;99.90;;;;;;2095042;28;20484;-70
2023/07/11 00:06:04;;;;;;;4.88;3.22;;;21.20;99.90;;;;;;2090780;28;20025;-70
2023/07/11 00:07:05;;;;;;;5.35;3.08;;;21.20;99.90;;;;;;2091168;28;20772;-70
2023/07/11 00:08:07;;;;;;;8.68;3.03;;;21.10;99.90;;;;;;2090750;28;20385;-70
2023/07/11 00:09:07;;;;;;;5.75;2.80;;;21.10;99.90;;;;;;2092379;28;20090;-70
2023/07/11 00:10:11;;;;;;;8.52;3.08;;;21.10;99.90;;;;;;2091058;28;20024;-70
2023/07/11 00:11:15;;;;;;;7.95;3.03;;;21.20;99.90;;;;;;2092701;28;20074;-70
2023/07/11 00:12:16;;;;;;;8.07;3.80;;;21.10;99.90;;;;;;2092511;28;20055;-70
2023/07/11 00:13:17;;;;;;;6.38;3.60;;;21.10;99.90;;;;;;2092991;28;20127;-70
2023/07/11 00:14:18;;;;;;;8.32;3.08;;;21.20;99.90;;;;;;2091704;28;20020;-70
2023/07/11 00:15:18;;;;;;;11.30;3.97;;;21.10;99.90;;;;;;2092176;28;20578;-70
2023/07/11 00:16:19;;;;;;;7.70;3.45;;;21.10;99.90;;;;;;2092376;28;20247;-70
2023/07/11 00:17:20;;;;;;;6.78;3.15;;;21.10;99.90;;;;;;2091926;28;20511;-70
2023/07/11 00:18:21;;;;;;;4.50;3.35;;;21.10;99.90;;;;;;2092648;28;20628;-70
2023/07/11 00:19:21;;;;;;;7.07;3.58;;;21.10;99.90;;;;;;2091851;28;20628;-70
2023/07/11 00:20:22;;;;;;;8.98;3.67;;;21.10;99.90;;;;;;2092587;28;20020;-70
2023/07/11 00:21:23;;;;;;;11.77;3.70;;;21.10;99.90;;;;;;2091910;28;20033;-70
2023/07/11 00:22:26;;;;;;;8.57;3.70;;;21.10;99.90;;;;;;2092546;28;20099;-70
2023/07/11 00:23:26;;;;;;;12.00;4.47;;;21.10;99.90;;;;;;2091847;28;20025;-70
2023/07/11 00:24:27;;;;;;;7.30;4.40;;;21.10;99.90;;;;;;2091794;28;20535;-70
2023/07/11 00:25:27;;;;;;;10.07;4.85;;;21.10;99.90;;;;;;2090961;28;20090;-70
2023/07/11 00:26:28;;;;;;;12.80;5.03;;;21.10;99.90;;;;;;2093125;28;20028;-70
2023/07/11 00:27:29;;;;;;;12.63;5.50;;;21.10;99.90;;;;;;2093328;28;20131;-70
2023/07/11 00:28:29;;;;;;;11.25;5.68;;;21.10;99.90;;;;;;2091935;28;20040;-70
2023/07/11 00:29:30;;;;;;;12.40;6.20;;;21.10;99.90;;;;;;2090997;28;20043;-70
2023/07/11 00:30:30;;;;;;;12.25;6.05;;;21.10;99.90;;;;;;2091519;28;20036;-70
2023/07/11 00:31:31;;;;;;;10.65;5.53;;;21.10;99.90;;;;;;2090405;28;20887;-70
2023/07/11 00:32:31;;;;;;;17.05;6.78;;;21.10;99.90;;;;;;2090665;28;20025;-70
2023/07/11 00:33:32;;;;;;;13.10;6.28;;;21.10;99.90;;;;;;2092415;28;20055;-70
2023/07/11 00:34:32;;;;;;;12.55;6.00;;;21.00;99.90;;;;;;2091625;28;20021;-70
2023/07/11 00:35:33;;;;;;;8.30;5.20;;;21.10;99.90;;;;;;2091804;28;20024;-70
2023/07/11 00:36:33;;;;;;;9.90;5.43;;;21.10;99.90;;;;;;2092665;28;20024;-70
2023/07/11 00:37:34;;;;;;;10.63;5.57;;;21.10;99.90;;;;;;2092509;28;20020;-70
2023/07/11 00:38:35;;;;;;;10.60;6.47;;;21.10;99.90;;;;;;2092999;28;20017;-70
2023/07/11 00:39:36;;;;;;;11.05;5.18;;;21.10;99.90;;;;;;2093073;28;20025;-70
2023/07/11 00:40:44;;;;;;;12.85;5.53;;;21.10;99.90;;;;;;2090823;28;20489;-70
2023/07/11 00:41:45;;;;;;;13.88;5.50;;;21.10;99.90;;;;;;2092326;28;20477;-70
2023/07/11 00:42:50;;;;;;;10.80;5.60;;;21.00;99.90;;;;;;2091018;28;20483;-70
2023/07/11 00:43:50;;;;;;;8.45;5.30;;;21.10;99.90;;;;;;2092297;28;20472;-70
2023/07/11 00:44:57;;;;;;;9.73;5.00;;;21.00;99.90;;;;;;2093561;28;20416;-70
2023/07/11 00:46:13;;;;;;;8.85;4.65;;;21.00;99.90;;;;;;2091789;28;20021;-70
2023/07/11 00:47:14;;;;;;;12.35;4.50;;;21.00;99.90;;;;;;2091502;28;20027;-70
2023/07/11 00:48:20;;;;;;;7.30;4.50;;;21.00;99.90;;;;;;2092701;28;20443;-70
2023/07/11 00:49:23;;;;;;;9.38;4.63;;;21.00;99.90;;;;;;2090795;28;20044;-70
2023/07/11 00:50:23;;;;;;;8.20;4.63;;;21.00;99.90;;;;;;2091799;28;20075;-70
2023/07/11 00:51:42;;;;;;;9.90;4.43;;;21.00;99.90;;;;;;2090212;28;20029;-70
2023/07/11 00:52:43;;;;;;;9.25;4.05;;;21.00;99.90;;;;;;2091711;28;20021;-70
2023/07/11 00:53:44;;;;;;;8.25;3.80;;;21.00;99.90;;;;;;2091329;28;20048;-70
2023/07/11 00:54:50;;;;;;;7.63;4.32;;;21.00;99.90;;;;;;2093072;28;20021;-70
2023/07/11 00:55:51;;;;;;;9.27;4.35;;;21.00;99.90;;;;;;2091970;28;20485;-70
2023/07/11 00:56:52;;;;;;;9.57;4.20;;;21.00;99.90;;;;;;2091557;28;20366;-70
2023/07/11 00:57:52;;;;;;;9.85;4.15;;;21.00;99.90;;;;;;2091086;28;20495;-70
2023/07/11 00:58:53;;;;;;;7.07;3.85;;;21.00;99.90;;;;;;2091609;28;20025;-70
2023/07/11 00:59:54;;;;;;;8.98;4.05;;;21.00;99.90;;;;;;2090127;28;20051;-70
2023/07/11 01:00:55;;;;;;;9.95;3.70;;;21.00;99.90;;;;;;2091751;28;20024;-70
2023/07/11 01:02:05;;;;;;;6.90;3.95;;;21.00;99.90;;;;;;2091023;28;20017;-70
2023/07/11 01:03:06;;;;;;;7.10;3.28;;;21.00;99.90;;;;;;2092280;28;20017;-70
2023/07/11 01:04:07;;;;;;;7.03;3.50;;;21.00;99.90;;;;;;2091008;28;20021;-70
2023/07/11 01:05:08;;;;;;;6.15;3.60;;;21.00;99.90;;;;;;2090919;28;20061;-70
2023/07/11 01:06:17;;;;;;;5.80;3.15;;;21.00;99.90;;;;;;2091529;28;20862;-70
2023/07/11 01:07:30;;;;;;;5.60;3.47;;;21.00;99.90;;;;;;2091336;28;20024;-70
2023/07/11 01:08:31;;;;;;;7.85;3.53;;;21.00;99.90;;;;;;2091076;28;20150;-70
2023/07/11 01:09:32;;;;;;;4.60;2.72;;;21.00;99.90;;;;;;2092629;28;20028;-70
2023/07/11 01:10:32;;;;;;;6.25;3.33;;;21.00;99.90;;;;;;2091430;28;20017;-70
2023/07/11 01:11:52;;;;;;;8.55;4.05;;;21.00;99.90;;;;;;2084100;28;20025;-70
2023/07/11 01:12:57;;;;;;;;;;;21.00;99.90;;;;;;2093928;28;20024;-70
2023/07/11 01:13:58;;;;;;;5.68;2.90;;;20.90;99.90;;;;;;2092598;28;20417;-70
2023/07/11 01:14:59;;;;;;;5.35;3.42;;;20.90;99.90;;;;;;2091996;28;20430;-70
2023/07/11 01:15:59;;;;;;;10.05;3.15;;;20.90;99.90;;;;;;2091890;28;20059;-70
2023/07/11 01:17:00;;;;;;;5.13;3.00;;;20.90;99.90;;;;;;2091114;28;20476;-70
2023/07/11 01:18:01;;;;;;;7.35;3.30;;;20.90;99.90;;;;;;2093301;28;20028;-70
2023/07/11 01:19:01;;;;;;;5.90;2.95;;;20.90;99.90;;;;;;2092087;28;20028;-70
2023/07/11 01:20:05;;;;;;;5.55;3.00;;;20.90;99.90;;;;;;2089064;28;20024;-70
2023/07/11 01:21:06;;;;;;;5.97;3.22;;;20.90;99.90;;;;;;2092958;28;20016;-70
2023/07/11 01:22:07;;;;;;;4.90;3.22;;;20.90;99.90;;;;;;2090677;28;20557;-70
2023/07/11 01:23:07;;;;;;;5.00;2.80;;;20.90;99.90;;;;;;2092156;28;20028;-70
2023/07/11 01:24:08;;;;;;;7.25;2.90;;;20.90;99.90;;;;;;2092725;28;20020;-70
2023/07/11 01:25:13;;;;;;;6.30;2.75;;;20.90;99.90;;;;;;2091697;28;20017;-70
2023/07/11 01:26:14;;;;;;;6.32;3.00;;;20.90;99.90;;;;;;2091330;28;20368;-70
2023/07/11 01:27:15;;;;;;;4.97;2.70;;;20.90;99.90;;;;;;2092736;28;20124;-70
2023/07/11 01:28:16;;;;;;;6.57;2.80;;;20.90;99.90;;;;;;2091169;28;20099;-70
2023/07/11 01:29:16;;;;;;;4.22;2.33;;;20.90;99.90;;;;;;2092966;28;20041;-70
2023/07/11 01:30:20;;;;;;;4.43;2.67;;;20.90;99.90;;;;;;2091160;28;20048;-70
2023/07/11 01:31:21;;;;;;;7.70;3.13;;;20.80;99.90;;;;;;2090027;28;20051;-70
2023/07/11 01:32:21;;;;;;;4.80;2.72;;;20.80;99.90;;;;;;2091278;28;20082;-70
2023/07/11 01:33:26;;;;;;;3.55;2.63;;;20.80;99.90;;;;;;2090232;28;20029;-70
2023/07/11 01:34:27;;;;;;;5.15;2.88;;;20.90;99.90;;;;;;2091623;28;20495;-70
2023/07/11 01:35:27;;;;;;;7.05;2.85;;;20.90;99.90;;;;;;2091001;28;20387;-70
2023/07/11 01:36:28;;;;;;;5.57;2.75;;;20.80;99.90;;;;;;2090549;28;20424;-70
2023/07/11 01:37:28;;;;;;;4.82;2.45;;;20.80;99.90;;;;;;2090340;28;20025;-70
2023/07/11 01:38:29;;;;;;;5.97;3.10;;;20.90;99.90;;;;;;2093446;28;20489;-70
2023/07/11 01:39:30;;;;;;;3.90;2.50;;;20.80;99.90;;;;;;2090382;28;20024;-70
2023/07/11 01:40:30;;;;;;;3.95;2.42;;;20.80;99.90;;;;;;2090354;28;20404;-70
2023/07/11 01:41:31;;;;;;;6.45;2.67;;;20.80;99.90;;;;;;2091344;28;20790;-70
2023/07/11 01:42:32;;;;;;;5.63;3.00;;;20.90;99.90;;;;;;2090949;28;20103;-70
2023/07/11 01:43:33;;;;;;;5.00;3.00;;;20.80;99.90;;;;;;2092581;28;20028;-70
2023/07/11 01:44:33;;;;;;;3.83;2.53;;;20.80;99.90;;;;;;2090870;28;20129;-70
2023/07/11 01:45:34;;;;;;;5.57;2.20;;;20.80;99.90;;;;;;2092517;28;20047;-70
2023/07/11 01:46:35;;;;;;;6.30;2.72;;;20.80;99.90;;;;;;2092179;28;20199;-70
2023/07/11 01:47:35;;;;;;;6.72;2.60;;;20.80;99.90;;;;;;2092064;28;20033;-70
2023/07/11 01:48:36;;;;;;;5.38;2.50;;;20.80;99.90;;;;;;2091694;28;20023;-70
2023/07/11 01:49:36;;;;;;;7.50;2.55;;;20.80;99.90;;;;;;2093625;28;20132;-70
2023/07/11 01:50:37;;;;;;;3.75;2.47;;;20.80;99.90;;;;;;2090372;28;20044;-70
2023/07/11 01:51:37;;;;;;;6.05;2.80;;;20.80;99.90;;;;;;2091094;28;20017;-70
2023/07/11 01:52:38;;;;;;;6.50;2.70;;;20.80;99.90;;;;;;2089837;28;20021;-70
2023/07/11 01:53:39;;;;;;;3.10;2.17;;;20.80;99.90;;;;;;2092072;28;20433;-70
2023/07/11 01:54:39;;;;;;;5.78;2.60;;;20.80;99.90;;;;;;2094555;28;20061;-70
2023/07/11 01:55:40;;;;;;;4.72;2.72;;;20.80;99.90;;;;;;2092780;28;20484;-70
2023/07/11 01:56:40;;;;;;;6.60;2.22;;;20.80;99.90;;;;;;2090734;28;20048;-70
2023/07/11 01:57:41;;;;;;;6.22;2.83;;;20.80;99.90;;;;;;2090558;28;20554;-70
2023/07/11 01:58:41;;;;;;;4.25;2.28;;;20.80;99.90;;;;;;2091204;28;20033;-70
2023/07/11 01:59:42;;;;;;;5.82;2.65;;;20.80;99.90;;;;;;2092448;28;20024;-70
2023/07/11 02:00:43;;;;;;;3.80;2.65;;;20.80;99.90;;;;;;2090136;28;20029;-70
2023/07/11 02:01:43;;;;;;;4.57;2.80;;;20.80;99.90;;;;;;2092167;28;20017;-70
2023/07/11 02:02:44;;;;;;;6.45;2.58;;;20.80;99.90;;;;;;2090620;28;20111;-70
2023/07/11 02:03:44;;;;;;;4.35;2.58;;;20.80;99.90;;;;;;2091201;28;20036;-70
2023/07/11 02:04:45;;;;;;;3.72;2.15;;;20.80;99.90;;;;;;2091235;28;20503;-70
2023/07/11 02:05:46;;;;;;;2.83;2.20;;;20.70;99.90;;;;;;2092225;28;20117;-70
2023/07/11 02:06:46;;;;;;;4.22;2.55;;;20.70;99.90;;;;;;2092080;28;20473;-70
2023/07/11 02:07:47;;;;;;;5.00;2.80;;;20.70;99.90;;;;;;2090146;28;20028;-70
2023/07/11 02:08:48;;;;;;;4.40;2.33;;;20.70;99.90;;;;;;2090841;28;20059;-70
2023/07/11 02:09:48;;;;;;;4.50;2.65;;;20.70;99.90;;;;;;2091552;28;20025;-70
2023/07/11 02:10:49;;;;;;;3.95;2.38;;;20.70;99.90;;;;;;2094122;28;20059;-70
2023/07/11 02:11:50;;;;;;;3.83;2.58;;;20.70;99.90;;;;;;2094907;28;20028;-70
2023/07/11 02:12:50;;;;;;;4.30;2.47;;;20.70;99.90;;;;;;2092004;28;20484;-70
2023/07/11 02:13:51;;;;;;;4.65;2.22;;;20.70;99.90;;;;;;2092127;28;20116;-70
2023/07/11 02:14:51;;;;;;;4.18;2.90;;;20.70;99.90;;;;;;2091255;28;20029;-70
2023/07/11 02:15:52;;;;;;;5.57;2.63;;;20.70;99.90;;;;;;2091797;28;20092;-70
2023/07/11 02:16:53;;;;;;;5.93;2.70;;;20.70;99.90;;;;;;2091919;28;20098;-70
2023/07/11 02:17:54;;;;;;;3.63;2.15;;;20.60;99.90;;;;;;2091634;28;20032;-70
2023/07/11 02:18:55;;;;;;;3.30;2.30;;;20.60;99.90;;;;;;2091627;28;20027;-70
2023/07/11 02:19:55;;;;;;;6.28;2.60;;;20.60;99.90;;;;;;2090557;28;20013;-70
2023/07/11 02:20:56;;;;;;;5.05;2.47;;;20.60;99.90;;;;;;2090295;28;20237;-70
2023/07/11 02:21:57;;;;;;;4.43;2.55;;;20.60;99.90;;;;;;2091372;28;20040;-70
2023/07/11 02:22:59;;;;;;;4.95;2.45;;;20.60;99.90;;;;;;2090619;28;20056;-70
2023/07/11 02:24:00;;;;;;;3.50;2.38;;;20.60;99.90;;;;;;2091443;28;20556;-70
2023/07/11 02:25:03;;;;;;;6.28;2.60;;;20.60;99.90;;;;;;2091851;28;20431;-70
2023/07/11 02:26:03;;;;;;;4.57;2.47;;;20.60;99.90;;;;;;2098752;28;20020;-70
2023/07/11 02:27:04;;;;;;;4.38;2.35;;;20.60;99.90;;;;;;2100687;28;20127;-71
2023/07/11 02:28:05;;;;;;;4.82;2.72;;;20.60;99.90;;;;;;2091971;28;20024;-71
2023/07/11 02:29:06;;;;;;;4.80;3.00;;;20.60;99.90;;;;;;2092558;28;20025;-70
2023/07/11 02:30:07;;;;;;;7.53;3.03;;;20.60;99.90;;;;;;2090756;28;20429;-70
2023/07/11 02:31:08;;;;;;;8.75;2.50;;;20.60;99.90;;;;;;2090320;28;20025;-70
2023/07/11 02:32:09;;;;;;;4.90;2.70;;;20.60;99.90;;;;;;2091648;28;20025;-70
2023/07/11 02:33:09;;;;;;;4.03;2.15;;;20.50;99.90;;;;;;2092151;28;20063;-70
2023/07/11 02:34:10;;;;;;;3.10;2.08;;;20.60;99.90;;;;;;2093938;28;20028;-70
2023/07/11 02:35:11;;;;;;;6.63;2.63;;;20.50;99.90;;;;;;2093745;28;20107;-70
2023/07/11 02:36:11;;;;;;;2.88;2.20;;;20.50;99.90;;;;;;2092716;28;20021;-70
2023/07/11 02:37:12;;;;;;;7.10;2.53;;;20.50;99.90;;;;;;2093151;28;20029;-70
2023/07/11 02:38:12;;;;;;;5.75;2.22;;;20.50;99.90;;;;;;2093107;28;20021;-70
2023/07/11 02:39:13;;;;;;;7.43;2.63;;;20.50;99.90;;;;;;2091606;28;20025;-70
2023/07/11 02:40:13;;;;;;;5.90;2.72;;;20.50;99.90;;;;;;2093979;28;20029;-70
2023/07/11 02:41:14;;;;;;;4.05;2.35;;;20.50;99.90;;;;;;2092294;28;20131;-70
2023/07/11 02:42:15;;;;;;;5.63;2.60;;;20.50;99.90;;;;;;2094028;28;20020;-70
2023/07/11 02:43:17;;;;;;;3.50;2.20;;;20.50;99.90;;;;;;2094639;28;20477;-70
2023/07/11 02:44:18;;;;;;;3.25;2.38;;;20.50;99.90;;;;;;2094497;28;20028;-70
2023/07/11 02:45:19;;;;;;;4.30;2.55;;;20.50;99.90;;;;;;2093472;28;20028;-70
2023/07/11 02:46:20;;;;;;;4.82;2.65;;;20.50;99.90;;;;;;2092974;28;20075;-70
2023/07/11 02:47:20;;;;;;;3.55;2.20;;;20.50;99.90;;;;;;2091341;28;20027;-70
2023/07/11 02:48:21;;;;;;;9.63;2.92;;;20.50;99.90;;;;;;2087140;28;20533;-70
2023/07/11 02:49:22;;;;;;;5.82;2.40;;;20.50;99.90;;;;;;2093562;28;20557;-70
2023/07/11 02:50:22;;;;;;;3.85;2.38;;;20.50;99.90;;;;;;2091912;28;20354;-71
2023/07/11 02:51:23;;;;;;;7.75;2.20;;;20.50;99.90;;;;;;2092772;28;20021;-70
2023/07/11 02:52:24;;;;;;;4.35;2.53;;;20.50;99.90;;;;;;2094488;28;20013;-70
2023/07/11 02:53:24;;;;;;;3.92;2.40;;;20.50;99.90;;;;;;2091742;28;20074;-70
2023/07/11 02:54:25;;;;;;;4.95;2.30;;;20.50;99.90;;;;;;2094688;28;20078;-70
2023/07/11 02:55:25;;;;;;;4.45;2.50;;;20.50;99.90;;;;;;2091494;28;20039;-70
2023/07/11 02:56:26;;;;;;;3.55;2.10;;;20.50;99.90;;;;;;2093391;28;20101;-70
2023/07/11 02:57:27;;;;;;;4.15;2.00;;;20.40;99.90;;;;;;2093401;28;20020;-70
2023/07/11 02:58:27;;;;;;;3.65;2.20;;;20.40;99.90;;;;;;2092961;28;20021;-70
2023/07/11 02:59:29;;;;;;;3.83;2.10;;;20.40;99.90;;;;;;2090998;28;20021;-70
2023/07/11 03:00:29;;;;;;;5.07;2.53;;;20.40;99.90;;;;;;2092046;28;20621;-70
2023/07/11 03:01:31;;;;;;;3.20;1.90;;;20.40;99.90;;;;;;2093469;28;20455;-70
2023/07/11 03:02:32;;;;;;;7.88;2.78;;;20.40;99.90;;;;;;2091711;28;20025;-70
2023/07/11 03:03:33;;;;;;;4.35;2.45;;;20.40;99.90;;;;;;2093101;28;20035;-70
2023/07/11 03:04:33;;;;;;;6.80;2.65;;;20.40;99.90;;;;;;2093837;28;20103;-70
2023/07/11 03:05:41;;;;;;;6.03;2.45;;;20.40;99.90;;;;;;2092407;28;20033;-70
2023/07/11 03:06:42;;;;;;;4.55;2.10;;;20.40;99.90;;;;;;2092258;28;20021;-70
2023/07/11 03:07:42;;;;;;;3.83;2.40;;;20.40;99.90;;;;;;2092417;28;20492;-70
2023/07/11 03:08:43;;;;;;;3.42;2.08;;;20.40;99.90;;;;;;2094272;28;20028;-70
2023/07/11 03:09:43;;;;;;;3.45;2.03;;;20.40;99.90;;;;;;2092888;28;20032;-70
2023/07/11 03:10:44;;;;;;;3.28;2.38;;;20.40;99.90;;;;;;2092014;28;20099;-70
2023/07/11 03:11:45;;;;;;;3.70;2.00;;;20.40;99.90;;;;;;2092371;28;20028;-71
2023/07/11 03:12:46;;;;;;;7.53;2.30;;;20.40;99.90;;;;;;2095813;28;20558;-71
2023/07/11 03:13:46;;;;;;;4.38;2.50;;;20.40;99.90;;;;;;2093850;28;20029;-71
2023/07/11 03:14:51;;;;;;;2.60;1.90;;;20.40;99.90;;;;;;2093474;28;20020;-70
2023/07/11 03:15:51;;;;;;;2.90;1.92;;;20.40;99.90;;;;;;2092769;28;20047;-70
2023/07/11 03:16:52;;;;;;;5.10;2.47;;;20.40;99.90;;;;;;2092889;28;20032;-70
2023/07/11 03:17:53;;;;;;;5.57;2.28;;;20.40;99.90;;;;;;2093946;28;20021;-70
2023/07/11 03:18:53;;;;;;;4.50;1.88;;;20.40;99.90;;;;;;2091427;28;20111;-70
2023/07/11 03:19:54;;;;;;;5.30;2.65;;;20.40;99.90;;;;;;2092815;28;20529;-70
2023/07/11 03:20:58;;;;;;;4.45;2.20;;;20.40;99.90;;;;;;2091391;28;20060;-70
2023/07/11 03:21:58;;;;;;;4.93;2.00;;;20.40;99.90;;;;;;2092077;28;20033;-70
2023/07/11 03:22:59;;;;;;;5.90;2.20;;;20.40;99.90;;;;;;2092972;28;20032;-70
2023/07/11 03:23:59;;;;;;;5.40;1.88;;;20.40;99.90;;;;;;2091705;28;21284;-70
2023/07/11 03:25:00;;;;;;;2.83;1.83;;;20.40;99.90;;;;;;2092376;28;20115;-70
2023/07/11 03:26:00;;;;;;;4.35;1.95;;;20.40;99.90;;;;;;2090985;28;20120;-70
2023/07/11 03:27:01;;;;;;;4.88;1.77;;;20.40;99.90;;;;;;2093297;28;20033;-70
2023/07/11 03:28:02;;;;;;;4.35;2.20;;;20.40;99.90;;;;;;2092104;28;20029;-70
2023/07/11 03:29:03;;;;;;;5.47;2.28;;;20.50;99.90;;;;;;2092071;28;20035;-70
2023/07/11 03:30:04;;;;;;;3.92;2.10;;;20.50;99.90;;;;;;2093152;28;20024;-70
2023/07/11 03:31:05;;;;;;;7.53;2.90;;;20.40;99.90;;;;;;2094410;28;20031;-70
2023/07/11 03:32:08;;;;;;;4.88;2.08;;;20.50;99.90;;;;;;2091761;28;20025;-70
2023/07/11 03:33:08;;;;;;;4.60;2.30;;;20.50;99.90;;;;;;2091858;28;20501;-70
2023/07/11 03:34:09;;;;;;;3.42;2.38;;;20.50;99.90;;;;;;2091322;28;20423;-70
2023/07/11 03:35:09;;;;;;;7.70;2.28;;;20.50;99.90;;;;;;2091618;28;20952;-70
2023/07/11 03:36:10;;;;;;;4.53;2.40;;;20.50;99.90;;;;;;2092167;28;20029;-70
2023/07/11 03:37:10;;;;;;;4.15;2.00;;;20.50;99.90;;;;;;2093664;28;20056;-70
2023/07/11 03:38:11;;;;;;;3.58;2.40;;;20.50;99.90;;;;;;2093248;28;20017;-70
2023/07/11 03:39:12;;;;;;;4.18;2.28;;;20.50;99.90;;;;;;2093687;28;20032;-70
2023/07/11 03:40:13;;;;;;;2.83;1.95;;;20.50;99.90;;;;;;2092794;28;20035;-70
2023/07/11 03:41:14;;;;;;;3.88;2.50;;;20.40;99.90;;;;;;2092789;28;20528;-70
2023/07/11 03:42:14;;;;;;;5.57;2.05;;;20.50;99.90;;;;;;2092445;28;20052;-70
2023/07/11 03:43:15;;;;;;;3.97;2.28;;;20.50;99.90;;;;;;2092088;28;20384;-70
2023/07/11 03:44:15;;;;;;;3.65;2.20;;;20.50;99.90;;;;;;2091750;28;20051;-70
2023/07/11 03:45:16;;;;;;;3.13;2.10;;;20.50;99.90;;;;;;2092314;28;20021;-70
2023/07/11 03:46:16;;;;;;;3.75;1.95;;;20.50;99.90;;;;;;2090278;28;20060;-70
2023/07/11 03:47:17;;;;;;;4.30;2.33;;;20.50;99.90;;;;;;2093257;28;20043;-70
2023/07/11 03:48:18;;;;;;;3.20;2.22;;;20.50;99.90;;;;;;2093118;28;20016;-70
2023/07/11 03:49:18;;;;;;;2.60;1.60;;;20.40;99.90;;;;;;2093103;28;20774;-70
2023/07/11 03:50:19;;;;;;;3.45;2.22;;;20.50;99.90;;;;;;2091087;28;20027;-70
2023/07/11 03:51:19;;;;;;;3.53;2.00;;;20.50;99.90;;;;;;2091621;28;20052;-70
2023/07/11 03:52:20;;;;;;;3.67;2.35;;;20.50;99.90;;;;;;2092884;28;20017;-70
2023/07/11 03:53:21;;;;;;;4.68;2.20;;;20.50;99.90;;;;;;2092382;28;20025;-70
2023/07/11 03:54:23;;;;;;;5.00;1.98;;;20.40;99.90;;;;;;2093253;28;20021;-70
2023/07/11 03:55:24;;;;;;;3.58;2.75;;;20.50;99.90;;;;;;2093545;28;20084;-70
2023/07/11 03:56:24;;;;;;;4.88;2.08;;;20.50;99.90;;;;;;2092319;28;20063;-70
2023/07/11 03:57:25;;;;;;;5.13;2.10;;;20.50;99.90;;;;;;2090407;28;20063;-70
2023/07/11 03:58:27;;;;;;;5.65;2.30;;;20.50;99.90;;;;;;2091698;28;20024;-70
2023/07/11 03:59:27;;;;;;;6.75;2.30;;;20.50;99.90;;;;;;2092820;28;20033;-70
2023/07/11 04:00:28;;;;;;;3.90;1.95;;;20.50;99.90;;;;;;2093585;28;20060;-70
2023/07/11 04:01:29;;;;;;;5.00;2.10;;;20.50;99.90;;;;;;2092144;28;20396;-70
2023/07/11 04:02:29;;;;;;;5.90;2.08;;;20.50;99.90;;;;;;2092013;28;20033;-70
2023/07/11 04:03:30;;;;;;;3.83;2.03;;;20.50;99.90;;;;;;2091597;28;20074;-70
2023/07/11 04:04:30;;;;;;;7.07;2.35;;;20.50;99.90;;;;;;2092292;28;20537;-70
2023/07/11 04:05:31;;;;;;;5.47;2.30;;;20.50;99.90;;;;;;2091606;28;20024;-70
2023/07/11 04:06:31;;;;;;;6.32;2.03;;;20.60;99.90;;;;;;2092517;28;20051;-70
2023/07/11 04:07:32;;;;;;;3.78;2.17;;;20.60;99.90;;;;;;2092212;28;20028;-70
2023/07/11 04:08:32;;;;;;;3.00;2.25;;;20.60;99.90;;;;;;2092631;28;20945;-70
2023/07/11 04:09:33;;;;;;;4.60;2.25;;;20.70;99.90;;;;;;2091723;28;20028;-70
2023/07/11 04:10:34;;;;;;;5.68;2.28;;;20.70;99.90;;;;;;2092060;28;20510;-71
2023/07/11 04:11:35;;;;;;;3.95;2.15;;;20.80;99.90;;;;;;2093513;28;20406;-71
2023/07/11 04:12:36;;;;;;;5.15;2.92;;;20.90;99.90;;;;;;2092950;28;20029;-71
2023/07/11 04:13:36;;;;;;;2.60;1.70;;;20.90;99.90;;;;;;2092865;28;20024;-71
2023/07/11 04:14:37;;;;;;;4.70;2.47;;;21.00;99.90;;;;;;2091036;28;20028;-71
2023/07/11 04:15:38;;;;;;;3.97;2.10;;;21.10;99.90;;;;;;2092275;28;20027;-71
2023/07/11 04:16:38;;;;;;;3.83;2.10;;;21.20;99.90;;;;;;2089340;28;20476;-71
2023/07/11 04:17:39;;;;;;;4.22;1.80;;;21.20;99.90;;;;;;2092042;28;20044;-71
2023/07/11 04:18:40;;;;;;;3.17;2.20;;;21.40;99.90;;;;;;2094192;28;20025;-71
2023/07/11 04:19:41;;;;;;;4.00;2.20;;;21.40;99.90;;;;;;2090238;28;20029;-70
2023/07/11 04:20:41;;;;;;;3.30;1.88;;;21.50;99.90;;;;;;2089596;28;20025;-70
2023/07/11 04:21:42;;;;;;;7.32;2.20;;;21.50;99.90;;;;;;2090904;28;20847;-70
2023/07/11 04:22:42;;;;;;;5.15;2.38;;;21.60;99.90;;;;;;2089963;28;20040;-70
2023/07/11 04:23:43;;;;;;;4.35;1.92;;;21.60;99.90;;;;;;2091825;28;20484;-70
2023/07/11 04:24:44;;;;;;;2.97;1.85;;;21.60;99.90;;;;;;2091209;28;20180;-70
2023/07/11 04:25:44;;;;;;;5.18;2.15;;;21.60;99.90;;;;;;2092664;28;20052;-71
2023/07/11 04:26:46;;;;;;;6.30;1.83;;;21.80;99.90;;;;;;2093212;28;20020;-71
2023/07/11 04:27:46;;;;;;;3.70;2.08;;;21.90;99.90;;;;;;2092216;28;20543;-71
2023/07/11 04:28:47;;;;;;;4.82;2.08;;;22.10;99.90;;;;;;2092556;28;20447;-71
2023/07/11 04:29:47;;;;;;;3.75;2.50;;;22.20;99.90;;;;;;2090036;28;20035;-70
2023/07/11 04:30:48;;;;;;;3.38;1.90;;;22.40;99.90;;;;;;2089641;28;20024;-70
2023/07/11 04:31:48;;;;;;;5.10;1.98;;;22.60;99.90;;;;;;2092696;28;20078;-70
2023/07/11 04:32:51;;;;;;;4.60;2.03;;;22.70;99.90;;;;;;2092065;28;20065;-70
2023/07/11 04:33:52;;;;;;;3.25;2.35;;;22.90;99.70;;;;;;2091935;28;20028;-70
2023/07/11 04:34:52;;;;;;;2.22;1.70;;;23.00;99.30;;;;;;2092650;28;20103;-71
2023/07/11 04:35:53;;;;;;;2.17;1.80;;;23.10;98.20;;;;;;2092921;28;20051;-71
2023/07/11 04:36:53;;;;;;;3.33;2.30;;;23.10;98.40;;;;;;2091667;28;20013;-71
2023/07/11 04:37:54;;;;;;;4.38;1.80;;;23.10;98.10;;;;;;2092849;28;20432;-71
2023/07/11 04:38:54;;;;;;;4.00;2.10;;;23.10;98.70;;;;;;2090814;28;20087;-70
2023/07/11 04:39:55;;;;;;;2.97;1.92;;;23.10;98.30;;;;;;2090020;28;20040;-70
2023/07/11 04:41:02;;;;;;;5.25;2.05;;;23.00;98.60;;;;;;2092040;28;20040;-70
2023/07/11 04:42:02;;;;;;;3.28;1.90;;;23.00;97.50;;;;;;2092097;28;20020;-71
2023/07/11 04:43:03;;;;;;;3.83;1.80;;;23.00;98.80;;;;;;2090777;28;20024;-70
2023/07/11 04:44:04;;;;;;;3.58;2.10;;;23.10;99.30;;;;;;2094727;28;20039;-70
2023/07/11 04:45:06;;;;;;;4.15;2.03;;;23.10;98.60;;;;;;2092908;28;20036;-70
2023/07/11 04:46:08;;;;;;;3.67;2.35;;;23.10;99.40;;;;;;2092077;28;20016;-70
2023/07/11 04:47:10;;;;;;;4.68;2.33;;;23.20;99.10;;;;;;2091667;28;20396;-70
2023/07/11 04:48:10;;;;;;;1.80;1.50;;;23.20;99.00;;;;;;2093056;28;20485;-70
2023/07/11 04:49:11;;;;;;;3.03;1.70;;;23.20;99.10;;;;;;2093991;28;20557;-70
2023/07/11 04:50:11;;;;;;;5.63;2.00;;;23.30;99.50;;;;;;2091634;28;20028;-70
2023/07/11 04:51:12;;;;;;;4.75;2.33;;;23.30;99.00;;;;;;2092128;28;20025;-70
2023/07/11 04:52:12;;;;;;;3.25;1.98;;;23.40;98.40;;;;;;2092203;28;20025;-70
2023/07/11 04:53:13;;;;;;;6.22;2.10;;;23.50;99.20;;;;;;2090655;28;20662;-70
2023/07/11 04:54:13;;;;;;;4.32;1.77;;;23.50;98.90;;;;;;2092488;28;20028;-70
2023/07/11 04:55:14;;;;;;;6.13;1.83;;;23.60;98.90;;;;;;2092616;28;20048;-70
2023/07/11 04:56:14;;;;;;;2.20;1.95;;;23.60;98.90;;;;;;2091910;28;20031;-70
2023/07/11 04:57:15;;;;;;;7.53;2.55;;;23.70;98.90;;;;;;2091638;28;20120;-70
2023/07/11 04:58:15;;;;;;;4.45;2.17;;;23.80;98.10;;;;;;2091353;28;20485;-70
2023/07/11 04:59:16;;;;;;;6.68;2.08;;;23.90;98.70;;;;;;2092604;28;20021;-70
2023/07/11 05:00:16;;;;;;;3.65;1.98;;;24.00;99.00;;;;;;2090801;28;20053;-70
2023/07/11 05:01:18;;;;;;;4.40;1.98;;;24.00;97.40;;;;;;2091177;28;20401;-70
2023/07/11 05:02:19;;;;;;;5.10;2.42;;;24.10;96.70;;;;;;2091593;28;20104;-70
2023/07/11 05:03:19;;;;;;;4.57;2.30;;;24.20;97.70;;;;;;2091709;28;20598;-70
2023/07/11 05:04:20;;;;;;;3.65;1.92;;;24.20;97.10;;;;;;2090804;28;20028;-71
2023/07/11 05:05:21;;;;;;;2.70;2.17;;;24.30;96.80;;;;;;2091976;28;20057;-71
2023/07/11 05:06:22;;;;;;;3.38;1.90;;;24.40;96.60;;;;;;2090875;28;20017;-71
2023/07/11 05:07:22;;;;;;;3.33;1.90;;;24.50;95.30;;;;;;2089294;28;20021;-71
2023/07/11 05:08:23;;;;;;;4.80;2.17;;;24.50;94.80;;;;;;2091706;28;20020;-71
2023/07/11 05:09:24;;;;;;;4.03;2.28;;;24.60;94.10;;;;;;2091182;28;20024;-71
2023/07/11 05:10:25;;;;;;;4.35;2.30;;;24.70;93.30;;;;;;2091426;28;20021;-71
2023/07/11 05:11:26;;;;;;;4.72;1.80;;;24.70;92.90;;;;;;2092056;28;20449;-71
2023/07/11 05:12:26;;;;;;;3.90;1.77;;;24.80;92.60;;;;;;2092163;28;20044;-71
2023/07/11 05:13:27;;;;;;;4.07;2.60;;;24.80;93.60;;;;;;2093146;28;20082;-71
2023/07/11 05:14:28;;;;;;;3.95;1.98;;;24.90;93.60;;;;;;2093403;28;20056;-71
2023/07/11 05:15:28;;;;;;;3.53;1.88;;;25.00;91.90;;;;;;2089925;28;20048;-71
2023/07/11 05:16:31;;;;;;;3.28;1.55;;;25.00;91.90;;;;;;2090262;28;20453;-71
2023/07/11 05:17:32;;;;;;;3.75;2.05;;;25.10;92.10;;;;;;2091325;28;20806;-71
2023/07/11 05:18:34;;;;;;;3.97;2.35;;;25.20;91.50;;;;;;2092171;28;20074;-71